Terminal Aerodrome Forecast
Issued by NWS Nashville, TN

Home | Current Version | Previous Version | Text Only | Print | Product List | Glossary On
Versions: 1 2 3 4 5 6 7 8 9 10 11 12 13 14 15 16 17 18
958
FTUS44 KOHX 110756 AAB
TAFBNA
TAF AMD
KBNA 110756Z 1108/1206 19005KT P6SM OVC060
     FM111100 17006KT P6SM BKN050 WS020/19035KT
     FM111500 18013G26KT P6SM BKN050
     FM120000 18015G26KT P6SM VCSH OVC035
     FM120300 19013G20KT 3SM RA OVC015=

USA.gov is the U.S. government's official web portal to all federal, state and local government web resources and services.